createdAt,value
2023-01-22T00:00:17.289Z,14.10
2023-01-22T00:05:19.033Z,12.63
2023-01-22T00:10:20.630Z,13.23
2023-01-22T00:15:22.180Z,12.02
2023-01-22T00:20:23.706Z,12.60
2023-01-22T00:25:25.197Z,13.63
2023-01-22T00:30:26.771Z,11.23
2023-01-22T00:35:28.457Z,10.50
2023-01-22T00:40:30.024Z,11.15
2023-01-22T00:45:32.092Z,11.73
2023-01-22T00:50:34.964Z,11.80
2023-01-22T00:55:36.512Z,11.45
2023-01-22T01:00:38.052Z,11.73
2023-01-22T01:05:39.812Z,11.57
2023-01-22T01:10:41.327Z,12.20
2023-01-22T01:15:43.306Z,11.63
2023-01-22T01:20:44.922Z,12.50
2023-01-22T01:25:46.462Z,11.75
2023-01-22T01:30:48.115Z,12.02
2023-01-22T01:35:49.647Z,10.75
2023-01-22T01:40:51.727Z,10.93
2023-01-22T01:45:54.834Z,11.77
2023-01-22T01:51:05.408Z,11.40
2023-01-22T01:56:12.664Z,10.68
2023-01-22T02:01:16.888Z,11.23
2023-01-22T02:06:19.715Z,11.43
2023-01-22T02:11:22.654Z,13.30
2023-01-22T02:16:24.275Z,12.50
2023-01-22T02:21:46.044Z,11.68
2023-01-22T02:26:47.586Z,13.68
2023-01-22T02:31:53.646Z,13.77
2023-01-22T02:36:55.465Z,15.15
2023-01-22T02:41:58.261Z,13.35
2023-01-22T02:47:00.143Z,14.23
2023-01-22T02:52:02.585Z,14.77
2023-01-22T02:57:05.093Z,13.93
2023-01-22T03:02:06.714Z,15.20
2023-01-22T03:07:08.324Z,14.25
2023-01-22T03:12:10.634Z,13.50
2023-01-22T03:17:31.773Z,24.17
2023-01-22T03:22:34.468Z,14.95
2023-01-22T03:27:36.797Z,13.95
2023-01-22T03:32:38.471Z,14.32
2023-01-22T03:37:43.875Z,14.30
2023-01-22T03:42:45.451Z,14.20
2023-01-22T03:47:47.686Z,14.65
2023-01-22T03:57:59.467Z,13.40
2023-01-22T04:03:01.157Z,15.15
2023-01-22T04:08:09.043Z,14.57
2023-01-22T04:13:14.577Z,14.55
2023-01-22T04:18:20.284Z,15.45
2023-01-22T04:23:36.441Z,16.60
2023-01-22T04:28:38.181Z,15.15
2023-01-22T04:33:39.926Z,13.40
2023-01-22T04:38:48.191Z,16.42
2023-01-22T04:43:49.770Z,15.57
2023-01-22T04:48:51.660Z,14.73
2023-01-22T04:53:54.069Z,15.27
2023-01-22T04:58:55.785Z,15.07
2023-01-22T05:04:01.578Z,14.75
2023-01-22T05:09:04.828Z,14.88
2023-01-22T05:14:17.624Z,15.40
2023-01-22T05:19:21.279Z,14.55
2023-01-22T05:24:23.420Z,15.65
2023-01-22T05:29:27.048Z,14.70
2023-01-22T05:34:52.368Z,14.10
2023-01-22T05:39:53.937Z,15.55
2023-01-22T05:44:55.629Z,15.27
2023-01-22T05:49:59.577Z,14.13
2023-01-22T05:55:01.919Z,14.93
2023-01-22T06:00:10.235Z,15.35
2023-01-22T06:05:17.986Z,13.65
2023-01-22T06:10:24.671Z,15.05
2023-01-22T06:15:26.430Z,14.95
2023-01-22T06:20:36.942Z,14.95
2023-01-22T06:25:38.513Z,14.00
2023-01-22T06:30:48.386Z,14.30
2023-01-22T06:35:54.800Z,14.00
2023-01-22T06:40:59.037Z,15.10
2023-01-22T06:46:03.349Z,13.85
2023-01-22T06:51:29.569Z,13.57
2023-01-22T06:56:31.397Z,18.95
2023-01-22T07:01:37.885Z,22.98
2023-01-22T07:06:39.425Z,22.45
2023-01-22T07:11:40.989Z,23.52
2023-01-22T07:16:42.515Z,20.15
2023-01-22T07:21:44.139Z,18.70
2023-01-22T07:26:46.380Z,17.17
2023-01-22T07:31:49.780Z,15.30
2023-01-22T07:36:51.520Z,15.07
2023-01-22T07:41:53.029Z,15.30
2023-01-22T07:46:54.713Z,15.88
2023-01-22T07:51:56.344Z,16.05
2023-01-22T07:56:57.876Z,16.58
2023-01-22T08:02:01.168Z,17.70
2023-01-22T08:07:04.733Z,16.30
2023-01-22T08:12:06.314Z,15.20
2023-01-22T08:17:07.841Z,13.70
2023-01-22T08:22:09.340Z,13.38
2023-01-22T08:27:10.906Z,14.25
2023-01-22T08:32:12.460Z,13.02
2023-01-22T08:37:14.041Z,14.50
2023-01-22T08:42:15.900Z,13.88
2023-01-22T08:47:17.474Z,12.80
2023-01-22T08:52:19.033Z,13.68
2023-01-22T08:57:20.717Z,13.65
2023-01-22T09:02:22.297Z,13.27
2023-01-22T09:07:23.824Z,13.13
2023-01-22T09:12:25.342Z,12.80
2023-01-22T09:17:28.066Z,13.50
2023-01-22T09:22:29.573Z,14.07
2023-01-22T09:27:31.087Z,13.93
2023-01-22T09:32:32.691Z,12.93
2023-01-22T09:37:34.501Z,13.00
2023-01-22T09:42:40.457Z,10.45
2023-01-22T09:47:49.089Z,10.25
2023-01-22T09:52:53.616Z,10.85
2023-01-22T09:58:00.179Z,10.70
2023-01-22T10:03:06.521Z,10.38
2023-01-22T10:08:13.476Z,10.10
2023-01-22T10:13:34.072Z,9.95
2023-01-22T10:18:50.865Z,10.30
2023-01-22T10:23:56.122Z,11.05
2023-01-22T10:28:59.063Z,11.82
2023-01-22T10:34:03.667Z,10.57
2023-01-22T10:39:14.242Z,10.02
2023-01-22T10:44:15.696Z,10.75
2023-01-22T10:49:24.647Z,9.88
2023-01-22T10:54:32.156Z,10.77
2023-01-22T10:59:34.365Z,10.10
2023-01-22T11:04:36.167Z,10.43
2023-01-22T11:09:57.960Z,10.70
2023-01-22T11:15:18.087Z,10.30
2023-01-22T11:20:44.241Z,9.60
2023-01-22T11:25:54.663Z,9.43
2023-01-22T11:31:12.823Z,8.82
2023-01-22T11:36:27.152Z,8.38
2023-01-22T11:41:59.251Z,8.98
2023-01-22T11:47:16.826Z,8.45
2023-01-22T11:52:33.155Z,8.13
2023-01-22T11:57:43.475Z,7.60
2023-01-22T12:03:10.686Z,7.90
2023-01-22T12:08:37.719Z,7.55
2023-01-22T12:14:04.063Z,8.38
2023-01-22T12:19:24.258Z,8.00
2023-01-22T12:24:36.051Z,8.27
2023-01-22T12:29:43.805Z,8.15
2023-01-22T12:34:56.685Z,8.05
2023-01-22T12:40:23.780Z,8.48
2023-01-22T12:45:31.940Z,8.43
2023-01-22T12:50:33.501Z,7.60
2023-01-22T12:55:41.632Z,8.68
2023-01-22T13:05:47.073Z,7.13
2023-01-22T13:11:00.187Z,7.45
2023-01-22T13:16:16.468Z,7.40
2023-01-22T13:21:25.055Z,7.32
2023-01-22T13:26:29.211Z,7.70
2023-01-22T13:31:31.135Z,7.20
2023-01-22T13:36:32.638Z,7.80
2023-01-22T13:41:38.919Z,7.50
2023-01-22T13:46:40.566Z,7.72
2023-01-22T13:51:42.669Z,7.75
2023-01-22T13:56:44.345Z,7.72
2023-01-22T14:01:46.720Z,6.90
2023-01-22T14:06:49.547Z,7.25
2023-01-22T14:11:51.280Z,8.07
2023-01-22T14:16:53.149Z,7.22
2023-01-22T14:21:54.659Z,7.75
2023-01-22T14:26:57.197Z,7.05
2023-01-22T14:31:58.854Z,7.07
2023-01-22T14:37:00.424Z,6.95
2023-01-22T14:42:02.239Z,6.93
2023-01-22T14:47:04.251Z,6.60
2023-01-22T14:52:05.859Z,7.28
2023-01-22T14:57:09.645Z,7.18
2023-01-22T15:02:11.241Z,8.48
2023-01-22T15:07:12.897Z,8.75
2023-01-22T15:12:14.418Z,9.45
2023-01-22T15:17:15.924Z,8.23
2023-01-22T15:22:17.664Z,8.05
2023-01-22T15:27:19.191Z,7.65
2023-01-22T15:32:20.849Z,7.53
2023-01-22T15:37:23.703Z,7.55
2023-01-22T15:42:25.238Z,8.05
2023-01-22T15:47:29.136Z,7.68
2023-01-22T15:52:30.675Z,8.18
2023-01-22T15:57:32.226Z,6.90
2023-01-22T16:02:33.783Z,7.70
2023-01-22T16:07:35.344Z,7.63
2023-01-22T16:12:38.069Z,8.68
2023-01-22T16:17:39.569Z,9.52
2023-01-22T16:22:45.485Z,7.75
2023-01-22T16:27:47.011Z,8.15
2023-01-22T16:32:49.038Z,7.65
2023-01-22T16:37:50.761Z,8.23
2023-01-22T16:43:01.555Z,8.60
2023-01-22T16:48:03.118Z,8.57
2023-01-22T16:53:04.641Z,9.40
2023-01-22T16:58:06.218Z,8.63
2023-01-22T17:03:07.730Z,9.95
2023-01-22T17:08:09.347Z,8.25
2023-01-22T17:13:10.922Z,8.65
2023-01-22T17:18:13.209Z,8.90
2023-01-22T17:23:14.747Z,9.02
2023-01-22T17:28:16.337Z,9.55
2023-01-22T17:33:20.800Z,8.95
2023-01-22T17:38:23.676Z,9.15
2023-01-22T17:43:25.198Z,8.95
2023-01-22T17:48:27.943Z,8.85
2023-01-22T17:53:29.462Z,8.98
2023-01-22T17:58:30.967Z,9.02
2023-01-22T18:03:33.378Z,9.85
2023-01-22T18:08:38.447Z,9.40
2023-01-22T18:13:40.302Z,9.30
2023-01-22T18:18:42.817Z,8.48
2023-01-22T18:23:45.464Z,8.18
2023-01-22T18:28:46.997Z,8.05
2023-01-22T18:33:49.435Z,8.75
2023-01-22T18:38:51.320Z,9.52
2023-01-22T18:43:58.867Z,9.18
2023-01-22T18:49:05.741Z,9.15
2023-01-22T18:54:08.151Z,13.68
2023-01-22T18:59:09.763Z,13.98
2023-01-22T19:04:17.901Z,15.27
2023-01-22T19:09:20.939Z,13.65
2023-01-22T19:14:22.546Z,14.80
2023-01-22T19:19:24.341Z,13.32
2023-01-22T19:24:28.388Z,13.27
2023-01-22T19:29:29.990Z,15.48
2023-01-22T19:34:33.872Z,13.30
2023-01-22T19:39:35.841Z,10.63
2023-01-22T19:44:39.988Z,12.35
2023-01-22T19:49:41.891Z,12.73
2023-01-22T19:54:47.369Z,13.00
2023-01-22T19:59:57.262Z,12.40
2023-01-22T20:04:58.781Z,13.07
2023-01-22T20:10:00.301Z,12.43
2023-01-22T20:15:02.048Z,11.63
2023-01-22T20:20:07.210Z,10.85
2023-01-22T20:25:09.141Z,12.45
2023-01-22T20:30:11.358Z,12.35
2023-01-22T20:35:15.517Z,12.50
2023-01-22T20:40:18.516Z,12.50
2023-01-22T20:45:20.335Z,12.68
2023-01-22T20:50:22.602Z,12.77
2023-01-22T20:55:24.613Z,11.90
2023-01-22T21:00:26.217Z,12.10
2023-01-22T21:05:28.725Z,12.65
2023-01-22T21:10:30.286Z,11.70
2023-01-22T21:15:33.583Z,12.02
2023-01-22T21:20:37.310Z,12.35
2023-01-22T21:25:38.922Z,12.60
2023-01-22T21:30:43.416Z,13.00
2023-01-22T21:35:51.047Z,11.90
2023-01-22T21:40:52.695Z,13.43
2023-01-22T21:46:12.713Z,13.55
2023-01-22T21:51:14.960Z,13.13
2023-01-22T21:56:16.555Z,13.57
2023-01-22T22:01:21.336Z,13.80
2023-01-22T22:06:22.995Z,14.48
2023-01-22T22:11:25.182Z,14.25
2023-01-22T22:16:27.122Z,14.93
2023-01-22T22:21:28.729Z,14.27
2023-01-22T22:26:30.496Z,14.52
2023-01-22T22:31:32.276Z,15.30
2023-01-22T22:36:34.130Z,15.82
2023-01-22T22:41:37.059Z,14.77
2023-01-22T22:46:39.749Z,14.57
2023-01-22T22:51:42.792Z,14.73
2023-01-22T22:56:45.976Z,15.13
2023-01-22T23:01:49.051Z,14.35
2023-01-22T23:06:51.972Z,15.15
2023-01-22T23:11:55.992Z,15.55
2023-01-22T23:16:57.873Z,15.30
2023-01-22T23:22:00.350Z,15.27
2023-01-22T23:27:01.903Z,16.15
2023-01-22T23:32:03.547Z,16.13
2023-01-22T23:37:05.063Z,16.83
2023-01-22T23:42:06.650Z,16.83
2023-01-22T23:47:08.336Z,17.55
2023-01-22T23:52:09.872Z,19.52
2023-01-22T23:57:11.530Z,20.15
